Time;durP1;ratioP1;P1;durP2;ratioP2;P2;SDS_P1;SDS_P2;PMS_P1;PMS_P2;Temp;Humidity;BMP_temperature;BMP_pressure;BME280_temperature;BME280_humidity;BME280_pressure;Samples;Min_cycle;Max_cycle;Signal;HPM_P1;HPM_P2
2022/07/02 00:01:23;;;;;;;;;3.00;3.00;;;;;19.36;42.51;101788.69;5097390;27;45772;-45
2022/07/02 00:03:55;;;;;;;;;2.50;1.00;;;;;19.35;42.26;101786.19;5096483;27;45439;-47
2022/07/02 00:06:27;;;;;;;;;4.50;3.25;;;;;19.34;42.41;101789.88;5097536;27;45364;-49
2022/07/02 00:08:54;;;;;;;;;3.50;3.00;;;;;19.32;42.40;101791.94;5096924;27;45560;-45
2022/07/02 00:11:20;;;;;;;;;3.25;2.25;;;;;19.29;42.48;101790.44;5097365;27;45338;-47
2022/07/02 00:13:48;;;;;;;;;2.00;2.00;;;;;19.30;42.75;101794.84;5097283;27;45396;-44
2022/07/02 00:16:13;;;;;;;;;4.25;3.00;;;;;19.30;42.98;101793.97;5097136;27;47417;-46
2022/07/02 00:18:38;;;;;;;;;2.00;2.00;;;;;19.28;42.89;101777.97;5097081;27;45338;-46
2022/07/02 00:21:04;;;;;;;;;2.33;2.33;;;;;19.26;43.14;101782.72;5097154;27;45342;-43
2022/07/02 00:23:30;;;;;;;;;3.00;3.00;;;;;19.24;42.98;101783.91;5097293;27;45330;-47
2022/07/02 00:26:07;;;;;;;;;5.00;3.00;;;;;19.16;42.78;101782.09;5096839;27;45633;-49
2022/07/02 00:28:38;;;;;;;;;2.00;2.00;;;;;19.18;43.20;101791.69;5096255;27;45509;-47
2022/07/02 00:31:04;;;;;;;;;2.00;2.00;;;;;19.17;43.33;101798.13;5097140;27;45360;-45
2022/07/02 00:33:31;;;;;;;;;4.33;4.33;;;;;19.14;43.36;101789.53;5096955;27;45449;-45
2022/07/02 00:35:58;;;;;;;;;5.00;4.67;;;;;19.12;43.59;101794.25;5097090;27;47225;-47
2022/07/02 00:38:24;;;;;;;;;2.00;2.00;;;;;19.12;43.58;101795.09;5096933;27;45393;-44
2022/07/02 00:40:51;;;;;;;;;3.33;3.33;;;;;19.10;43.67;101793.59;5096801;27;45493;-48
2022/07/02 00:43:18;;;;;;;;;6.00;6.00;;;;;19.09;43.76;101786.53;5097094;27;45543;-49
2022/07/02 00:45:43;;;;;;;;;5.33;4.00;;;;;19.04;44.14;101778.94;5096459;27;46267;-45
2022/07/02 00:48:09;;;;;;;;;5.00;4.67;;;;;19.03;44.47;101788.06;5096415;27;45456;-48
2022/07/02 00:50:34;;;;;;;;;4.33;3.67;;;;;19.01;44.79;101783.88;5096958;27;45441;-44
2022/07/02 00:53:00;;;;;;;;;8.67;6.00;;;;;18.99;44.88;101784.03;5097026;27;45231;-46
2022/07/02 00:55:25;;;;;;;;;5.67;4.00;;;;;18.93;45.12;101774.81;5096204;27;47281;-45
2022/07/02 00:57:51;;;;;;;;;4.00;4.00;;;;;18.87;44.82;101766.56;5096478;27;45537;-46
2022/07/02 01:00:20;;;;;;;;;7.00;4.00;;;;;18.92;45.13;101773.13;5096498;27;45295;-45
2022/07/02 01:02:47;;;;;;;;;8.00;5.00;;;;;18.91;45.11;101782.22;5096872;27;45306;-50
2022/07/02 01:05:19;;;;;;;;;7.00;6.00;;;;;18.89;45.04;101769.94;5096314;27;46203;-46
2022/07/02 01:10:42;;;;;;;;;7.00;6.00;;;;;18.84;45.21;101773.16;5093867;27;45728;-44
2022/07/02 01:13:09;;;;;;;;;7.33;6.67;;;;;18.83;45.47;101776.03;5094398;27;45477;-46
2022/07/02 01:15:37;;;;;;;;;6.33;5.00;;;;;18.82;45.38;101780.56;5093880;27;45524;-50
2022/07/02 01:18:03;;;;;;;;;6.33;4.67;;;;;18.67;45.61;101756.19;5094183;27;45416;-49
2022/07/02 01:20:28;;;;;;;;;10.00;7.00;;;;;18.79;45.69;101778.22;5093209;27;45480;-45
2022/07/02 01:22:53;;;;;;;;;5.00;4.00;;;;;18.79;45.77;101777.38;5094088;27;45480;-47
2022/07/02 01:25:19;;;;;;;;;7.00;5.67;;;;;18.76;45.99;101786.69;5093661;27;46704;-47
2022/07/02 01:27:44;;;;;;;;;4.67;4.67;;;;;18.76;46.02;101788.53;5093598;27;45398;-46
2022/07/02 01:30:10;;;;;;;;;7.00;6.00;;;;;18.69;45.89;101780.28;5093822;27;46014;-45
2022/07/02 01:32:35;;;;;;;;;5.67;4.33;;;;;18.67;46.48;101787.72;5094343;27;45434;-45
2022/07/02 01:35:04;;;;;;;;;4.33;4.00;;;;;18.67;46.48;101785.84;5093495;27;45975;-46
2022/07/02 01:37:29;;;;;;;;;9.00;6.33;;;;;18.65;46.60;101795.09;5093986;27;45515;-44
2022/07/02 01:39:55;;;;;;;;;5.33;5.33;;;;;18.63;46.96;101795.28;5094150;27;45621;-45
2022/07/02 01:42:20;;;;;;;;;5.67;5.67;;;;;18.60;47.04;101792.09;5097303;27;45638;-44
2022/07/02 01:44:46;;;;;;;;;8.67;6.67;;;;;18.53;46.28;101783.03;5097464;27;46138;-45
2022/07/02 01:47:12;;;;;;;;;6.00;6.00;;;;;18.42;47.80;101785.09;5098084;27;45456;-52
2022/07/02 01:49:39;;;;;;;;;11.00;6.67;;;;;18.47;48.05;101792.66;5099528;27;45388;-45
2022/07/02 01:52:05;;;;;;;;;8.00;8.00;;;;;18.41;48.06;101794.19;5100324;27;45372;-49
2022/07/02 01:54:32;;;;;;;;;8.00;7.67;;;;;18.39;48.39;101795.38;5099547;27;46112;-45
2022/07/02 01:56:59;;;;;;;;;8.67;8.67;;;;;18.31;48.74;101782.75;5099337;27;45336;-44
2022/07/02 01:59:24;;;;;;;;;9.33;8.00;;;;;18.34;48.63;101800.44;5099441;27;45359;-43
2022/07/02 02:01:50;;;;;;;;;8.33;8.00;;;;;18.30;49.06;101785.63;5099537;27;45477;-44
2022/07/02 02:04:15;;;;;;;;;13.67;11.33;;;;;18.20;49.32;101786.66;5099387;27;46307;-46
2022/07/02 02:06:41;;;;;;;;;14.33;12.00;;;;;18.18;48.88;101788.66;5099038;27;45523;-48
2022/07/02 02:09:08;;;;;;;;;11.33;10.33;;;;;18.11;48.92;101793.03;5099517;27;45381;-46
2022/07/02 02:11:33;;;;;;;;;11.67;9.00;;;;;18.00;49.15;101785.34;5099172;27;45489;-48
2022/07/02 02:14:00;;;;;;;;;8.00;8.00;;;;;17.97;49.60;101784.84;5098980;27;47073;-45
2022/07/02 02:16:27;;;;;;;;;9.67;8.33;;;;;17.90;49.72;101779.28;5099116;27;45436;-44
2022/07/02 02:18:53;;;;;;;;;8.67;8.00;;;;;17.91;49.86;101789.06;5098778;27;45408;-48
2022/07/02 02:21:19;;;;;;;;;13.67;9.00;;;;;17.90;49.52;101788.19;5099293;27;45378;-46
2022/07/02 02:23:44;;;;;;;;;9.00;8.33;;;;;17.86;48.82;101780.63;5098611;27;45441;-47
2022/07/02 02:26:10;;;;;;;;;9.67;8.67;;;;;17.81;49.12;101783.81;5098755;27;45376;-52
2022/07/02 02:28:35;;;;;;;;;11.67;11.00;;;;;17.76;49.46;101772.72;5099254;27;45356;-49
2022/07/02 02:31:01;;;;;;;;;12.67;11.67;;;;;17.70;50.25;101774.22;5098804;27;45416;-49
2022/07/02 02:33:26;;;;;;;;;10.33;8.67;;;;;17.70;49.88;101778.78;5098787;27;47239;-50
2022/07/02 02:35:51;;;;;;;;;11.33;9.00;;;;;17.64;50.29;101776.72;5097126;27;45402;-45
2022/07/02 02:38:17;;;;;;;;;10.33;9.33;;;;;17.63;50.78;101773.22;5098855;27;45394;-45
2022/07/02 02:40:42;;;;;;;;;11.00;11.00;;;;;17.46;50.50;101756.22;5098881;27;45371;-50
2022/07/02 02:43:08;;;;;;;;;11.33;10.00;;;;;17.55;49.30;101775.88;5098522;27;46199;-46
2022/07/02 02:45:33;;;;;;;;;11.33;8.00;;;;;17.52;50.31;101778.06;5098647;27;45362;-45
2022/07/02 02:47:59;;;;;;;;;8.33;6.00;;;;;17.43;51.59;101763.78;5099006;27;45381;-46
2022/07/02 02:50:24;;;;;;;;;6.33;6.00;;;;;17.46;51.46;101776.91;5098709;27;45482;-45
2022/07/02 02:52:49;;;;;;;;;12.67;11.33;;;;;17.44;51.79;101778.91;5098021;27;45402;-46
2022/07/02 02:55:15;;;;;;;;;11.67;8.00;;;;;17.42;52.40;101770.16;5098462;27;45331;-55
2022/07/02 02:57:40;;;;;;;;;9.67;8.33;;;;;17.41;52.65;101774.72;5098324;27;45282;-48
2022/07/02 03:00:06;;;;;;;;;8.00;6.00;;;;;17.30;52.34;101761.56;5098982;27;45402;-50
2022/07/02 03:02:31;;;;;;;;;7.33;7.00;;;;;17.39;52.54;101778.56;5098173;27;47177;-44
2022/07/02 03:04:57;;;;;;;;;6.00;6.00;;;;;17.40;52.63;101777.53;5098464;27;45409;-43
2022/07/02 03:07:22;;;;;;;;;8.00;8.00;;;;;17.38;51.42;101769.66;5098562;27;45269;-45
2022/07/02 03:09:47;;;;;;;;;9.67;7.33;;;;;17.34;51.70;101776.38;5098671;27;45766;-50
2022/07/02 03:12:13;;;;;;;;;10.00;6.33;;;;;17.29;51.57;101767.97;5098117;27;47276;-45
2022/07/02 03:14:38;;;;;;;;;10.00;6.33;;;;;16.93;51.03;101719.81;5098142;27;45825;-46
2022/07/02 03:17:04;;;;;;;;;11.33;6.67;;;;;17.23;52.14;101778.53;5098537;27;45278;-45
2022/07/02 03:19:29;;;;;;;;;11.67;8.00;;;;;17.18;53.68;101787.09;5098264;27;45382;-51
2022/07/02 03:21:54;;;;;;;;;7.00;6.67;;;;;17.14;53.76;101781.19;5098014;27;45980;-46
2022/07/02 03:24:20;;;;;;;;;12.67;7.00;;;;;16.76;53.68;101728.84;5098141;27;45425;-47
2022/07/02 03:26:45;;;;;;;;;5.00;3.00;;;;;17.09;52.65;101791.63;5097808;27;45817;-48
2022/07/02 03:29:10;;;;;;;;;7.00;7.00;;;;;17.07;53.79;101790.13;5098283;27;45442;-42
2022/07/02 03:31:36;;;;;;;;;4.67;4.67;;;;;16.94;54.92;101782.50;5097769;27;47402;-46
2022/07/02 03:34:01;;;;;;;;;7.33;6.33;;;;;16.93;55.46;101775.44;5098107;27;45398;-49
2022/07/02 03:36:27;;;;;;;;;7.00;5.67;;;;;16.92;53.94;101784.50;5098038;27;45411;-46
2022/07/02 03:38:52;;;;;;;;;6.00;6.00;;;;;16.87;55.91;101776.94;5097857;27;45343;-44
2022/07/02 03:41:17;;;;;;;;;9.33;7.67;;;;;16.81;55.76;101772.22;5097581;27;46295;-43
2022/07/02 03:43:43;;;;;;;;;11.67;9.33;;;;;16.85;56.59;101778.09;5097554;27;45547;-50
2022/07/02 03:46:08;;;;;;;;;11.00;9.00;;;;;16.84;56.23;101774.56;5097953;27;45377;-44
2022/07/02 03:48:33;;;;;;;;;6.67;6.67;;;;;16.84;56.13;101777.25;5098044;27;45382;-46
2022/07/02 03:50:59;;;;;;;;;9.33;6.67;;;;;16.85;54.49;101780.78;5097570;27;45438;-45
2022/07/02 03:53:24;;;;;;;;;10.00;9.00;;;;;16.69;56.14;101768.09;5097597;27;45410;-43
2022/07/02 03:55:50;;;;;;;;;8.67;8.67;;;;;16.78;55.73;101788.66;5096245;27;45501;-47
2022/07/02 03:58:15;;;;;;;;;11.33;9.00;;;;;16.66;57.37;101780.00;5097768;27;45437;-44
2022/07/02 04:00:40;;;;;;;;;9.67;9.67;;;;;16.69;57.20;101790.44;5097199;27;46057;-42
2022/07/02 04:03:06;;;;;;;;;4.67;4.67;;;;;16.69;57.01;101790.44;5097011;27;45415;-44
2022/07/02 04:05:32;;;;;;;;;5.00;5.00;;;;;16.63;56.13;101774.13;5097127;27;45606;-44
2022/07/02 04:07:57;;;;;;;;;7.33;6.67;;;;;16.65;56.90;101775.66;5097567;27;45326;-44
2022/07/02 04:10:23;;;;;;;;;9.67;6.67;;;;;16.69;57.70;101779.69;5095979;27;46192;-43
2022/07/02 04:12:48;;;;;;;;;8.33;7.00;;;;;16.69;57.46;101777.00;5097101;27;45534;-44
2022/07/02 04:15:14;;;;;;;;;12.00;11.00;;;;;16.71;57.21;101788.41;5097430;27;45364;-45
2022/07/02 04:17:39;;;;;;;;;8.67;7.00;;;;;16.74;57.58;101789.16;5097462;27;45347;-43
2022/07/02 04:20:05;;;;;;;;;9.33;7.67;;;;;16.75;56.40;101788.13;5097172;27;45695;-46
2022/07/02 04:22:30;;;;;;;;;8.33;8.33;;;;;16.76;56.12;101781.75;5097003;27;45348;-49
2022/07/02 04:24:56;;;;;;;;;9.67;5.00;;;;;16.66;56.95;101780.00;5097335;27;45792;-45
2022/07/02 04:27:21;;;;;;;;;7.00;6.67;;;;;16.67;57.65;101792.44;5097280;27;45655;-48
2022/07/02 04:29:47;;;;;;;;;7.33;6.33;;;;;16.63;57.58;101791.06;5096592;27;45342;-44
2022/07/02 04:32:13;;;;;;;;;8.67;8.00;;;;;16.60;56.81;101786.03;5096983;27;45458;-51
2022/07/02 04:34:38;;;;;;;;;7.67;7.67;;;;;16.63;58.02;101792.91;5097055;27;45318;-46
2022/07/02 04:37:04;;;;;;;;;7.00;7.00;;;;;16.61;56.34;101785.03;5097148;27;45314;-42
2022/07/02 04:39:29;;;;;;;;;9.33;8.00;;;;;16.60;56.74;101787.84;5096625;27;47133;-43
2022/07/02 04:41:55;;;;;;;;;6.67;6.00;;;;;16.61;57.40;101793.09;5096694;27;45473;-44
2022/07/02 04:44:20;;;;;;;;;7.00;5.00;;;;;16.60;57.75;101794.09;5096830;27;45919;-45
2022/07/02 04:46:46;;;;;;;;;9.67;7.00;;;;;16.50;58.24;101771.88;5097050;27;45833;-42
2022/07/02 04:49:12;;;;;;;;;5.67;5.00;;;;;16.63;58.06;101790.22;5096593;27;46131;-44
2022/07/02 04:51:37;;;;;;;;;9.00;6.67;;;;;16.67;57.90;101789.75;5096388;27;45317;-44
2022/07/02 04:54:02;;;;;;;;;6.67;6.33;;;;;16.70;58.70;101780.53;5097003;27;45330;-48
2022/07/02 04:56:28;;;;;;;;;7.33;7.33;;;;;16.71;58.52;101783.03;5096967;27;45628;-43
2022/07/02 04:58:54;;;;;;;;;11.33;9.00;;;;;16.64;57.78;101781.16;5096516;27;45965;-44
2022/07/02 05:01:20;;;;;;;;;11.00;7.00;;;;;16.73;58.30;101787.44;5096680;27;45304;-47
2022/07/02 05:03:46;;;;;;;;;8.67;7.00;;;;;16.73;58.52;101791.00;5096289;27;45398;-45
2022/07/02 05:06:11;;;;;;;;;6.67;6.33;;;;;16.77;58.32;101789.69;5097007;27;45304;-51
2022/07/02 05:08:36;;;;;;;;;7.00;6.00;;;;;16.70;58.25;101770.63;5096445;27;46071;-46
2022/07/02 05:11:02;;;;;;;;;8.00;7.00;;;;;16.81;57.50;101792.84;5096547;27;45414;-51
2022/07/02 05:13:30;;;;;;;;;9.67;9.67;;;;;16.81;58.30;101798.22;5096289;27;45457;-43
2022/07/02 05:15:56;;;;;;;;;15.33;9.00;;;;;16.81;58.15;101785.66;5096514;27;45436;-46
2022/07/02 05:18:23;;;;;;;;;7.67;7.67;;;;;16.84;58.30;101787.16;5096332;27;47104;-52
2022/07/02 05:20:49;;;;;;;;;8.67;6.67;;;;;16.86;57.38;101787.84;5095676;27;45285;-50
2022/07/02 05:23:14;;;;;;;;;9.00;9.00;;;;;16.83;58.38;101774.75;5096410;27;45389;-47
2022/07/02 05:25:39;;;;;;;;;8.00;7.00;;;;;16.88;58.64;101785.84;5096297;27;45403;-46
2022/07/02 05:28:08;;;;;;;;;7.00;6.33;;;;;16.89;58.47;101792.88;5096257;27;46043;-42
2022/07/02 05:30:33;;;;;;;;;10.33;6.00;;;;;16.92;58.35;101790.72;5095838;27;45492;-49
2022/07/02 05:32:58;;;;;;;;;9.67;8.33;;;;;16.93;58.51;101792.41;5096223;27;45991;-43
2022/07/02 05:35:24;;;;;;;;;10.33;8.00;;;;;16.99;56.61;101798.16;5097219;27;45317;-44
2022/07/02 05:37:49;;;;;;;;;6.67;6.67;;;;;16.97;58.03;101790.22;5096575;27;47048;-50
2022/07/02 05:40:15;;;;;;;;;8.33;8.00;;;;;16.98;58.44;101788.38;5096290;27;45239;-44
2022/07/02 05:42:40;;;;;;;;;8.33;8.33;;;;;17.00;58.27;101791.75;5095986;27;45397;-43
2022/07/02 05:45:06;;;;;;;;;11.00;9.33;;;;;16.98;58.48;101791.94;5096222;27;45213;-44
2022/07/02 05:47:31;;;;;;;;;7.67;7.00;;;;;17.04;57.68;101790.44;5095914;27;48716;-46
2022/07/02 05:49:56;;;;;;;;;13.67;10.33;;;;;17.06;58.31;101786.56;5096038;27;45413;-46
2022/07/02 05:52:22;;;;;;;;;7.00;7.00;;;;;17.11;58.56;101795.00;5095954;27;45306;-49
2022/07/02 05:54:47;;;;;;;;;10.00;8.00;;;;;17.13;57.99;101798.34;5096170;27;45593;-46
2022/07/02 05:57:12;;;;;;;;;10.67;6.00;;;;;17.12;57.73;101790.47;5095772;27;46157;-45
2022/07/02 05:59:38;;;;;;;;;8.67;8.67;;;;;17.17;57.81;101794.31;5095609;27;45357;-44
2022/07/02 06:02:04;;;;;;;;;7.00;7.00;;;;;17.21;57.10;101795.69;5095975;27;45362;-47
2022/07/02 06:04:29;;;;;;;;;7.33;7.00;;;;;17.26;57.33;101805.09;5095717;27;45525;-51
2022/07/02 06:09:39;;;;;;;;;10.33;6.00;;;;;17.37;56.62;101792.19;5095542;27;45537;-50
2022/07/02 06:12:05;;;;;;;;;7.67;6.00;;;;;17.43;56.27;101794.19;5095644;27;45430;-48
2022/07/02 06:14:30;;;;;;;;;10.00;9.00;;;;;17.50;56.45;101798.94;5095188;27;45377;-48
2022/07/02 06:16:55;;;;;;;;;11.67;8.67;;;;;17.56;55.88;101801.78;5095486;27;45476;-49
2022/07/02 06:19:22;;;;;;;;;7.67;7.67;;;;;17.62;55.71;101798.44;5095500;27;45219;-49
2022/07/02 06:21:47;;;;;;;;;8.00;7.00;;;;;17.65;55.78;101795.38;5095574;27;45502;-45
2022/07/02 06:24:12;;;;;;;;;6.00;6.00;;;;;17.75;55.32;101792.59;5094113;27;45470;-46
2022/07/02 06:26:38;;;;;;;;;7.67;5.67;;;;;17.81;54.55;101796.44;5095877;27;45454;-48
2022/07/02 06:29:04;;;;;;;;;5.67;5.67;;;;;17.88;54.72;101792.91;5098729;27;45446;-47
2022/07/02 06:31:30;;;;;;;;;8.00;6.00;;;;;17.98;54.33;101798.13;5099048;27;45448;-48
2022/07/02 06:33:55;;;;;;;;;5.67;5.67;;;;;18.04;54.40;101784.00;5099175;27;45641;-48
2022/07/02 06:36:22;;;;;;;;;8.67;7.00;;;;;18.26;53.97;101787.81;5098906;27;45441;-48
2022/07/02 06:38:48;;;;;;;;;9.00;7.33;;;;;18.32;53.29;101764.72;5098799;27;45188;-47
2022/07/02 06:43:58;;;;;;;;;6.00;4.67;;;;;19.39;51.85;101787.50;5098948;27;45437;-44
2022/07/02 06:46:23;;;;;;;;;7.00;5.00;;;;;20.07;51.45;101792.03;5098776;27;45970;-46
2022/07/02 06:48:48;;;;;;;;;5.00;5.00;;;;;20.85;47.99;101779.84;5098703;27;45390;-47
2022/07/02 06:51:16;;;;;;;;;4.00;4.00;;;;;21.69;46.77;101782.03;5098799;27;45341;-48
2022/07/02 06:53:42;;;;;;;;;5.00;4.50;;;;;22.63;44.30;101776.25;5098639;27;45453;-44
2022/07/02 06:56:07;;;;;;;;;5.75;5.75;;;;;23.38;43.07;101755.41;5098753;27;45434;-44
2022/07/02 06:58:35;;;;;;;;;4.25;4.00;;;;;24.14;45.03;101771.31;5098094;27;45493;-48
2022/07/02 07:01:00;;;;;;;;;5.25;5.25;;;;;24.82;38.10;101771.78;5098252;27;45359;-47
2022/07/02 07:03:25;;;;;;;;;4.00;4.00;;;;;25.51;37.28;101767.44;5098691;27;45555;-46
2022/07/02 07:05:52;;;;;;;;;7.75;4.50;;;;;26.30;36.73;101771.34;5098518;27;45725;-49
2022/07/02 07:08:20;;;;;;;;;1.60;1.60;;;;;27.04;42.25;101760.38;5098403;27;45363;-49
2022/07/02 07:10:45;;;;;;;;;5.60;4.00;;;;;27.65;33.67;101766.66;5098359;27;45354;-49
2022/07/02 07:13:11;;;;;;;;;3.50;3.00;;;;;28.20;34.04;101763.59;5098562;27;45343;-45
2022/07/02 07:15:36;;;;;;;;;3.75;3.75;;;;;28.90;32.51;101752.50;5097861;27;45903;-47
2022/07/02 07:18:01;;;;;;;;;3.00;3.00;;;;;29.61;34.85;101758.47;5098242;27;45450;-46
2022/07/02 07:20:29;;;;;;;;;4.00;3.00;;;;;30.48;29.22;101763.34;5098118;27;45751;-47
2022/07/02 07:22:55;;;;;;;;;2.80;2.80;;;;;31.98;27.52;101754.41;5098249;27;45393;-47
2022/07/02 07:25:20;;;;;;;;;3.60;3.00;;;;;33.99;24.81;101749.94;5096714;27;46254;-48
2022/07/02 07:27:46;;;;;;;;;4.50;2.00;;;;;35.73;22.71;101748.97;5097708;27;45398;-48
2022/07/02 07:30:12;;;;;;;;;2.00;2.00;;;;;37.01;20.84;101731.63;5097864;27;45328;-47
2022/07/02 07:32:38;;;;;;;;;3.60;3.00;;;;;38.31;19.14;101746.53;5098328;27;45288;-48
2022/07/02 07:35:04;;;;;;;;;4.60;3.00;;;;;39.17;21.09;101741.81;5097188;27;45455;-45
2022/07/02 07:37:30;;;;;;;;;1.80;1.80;;;;;40.26;17.56;101733.06;5097961;27;45312;-49
2022/07/02 07:39:55;;;;;;;;;2.25;2.00;;;;;41.25;17.12;101743.66;5097783;27;45406;-47
2022/07/02 07:42:22;;;;;;;;;0.75;0.50;;;;;41.67;17.16;101739.13;5098378;27;45313;-47
2022/07/02 07:44:48;;;;;;;;;1.00;0.80;;;;;42.25;15.20;101743.19;5097725;27;46159;-46
2022/07/02 07:47:13;;;;;;;;;2.00;2.00;;;;;42.83;15.26;101735.06;5097708;27;45400;-44
2022/07/02 07:49:39;;;;;;;;;0.75;0.75;;;;;43.70;15.57;101732.25;5097708;27;45462;-46
2022/07/02 07:52:04;;;;;;;;;2.00;2.00;;;;;44.35;14.09;101726.75;5097539;27;45553;-44
2022/07/02 07:54:30;;;;;;;;;3.50;2.00;;;;;45.01;13.41;101733.94;5097153;27;45486;-46
2022/07/02 07:56:55;;;;;;;;;1.75;1.75;;;;;45.26;12.41;101724.25;5097416;27;45474;-45
2022/07/02 07:59:21;;;;;;;;;1.00;1.00;;;;;45.69;12.43;101722.56;5096906;27;45995;-45
2022/07/02 08:01:46;;;;;;;;;1.50;1.50;;;;;46.11;13.03;101729.63;5096869;27;45508;-48
2022/07/02 08:04:11;;;;;;;;;2.75;0.75;;;;;46.31;12.88;101731.28;5097064;27;47018;-46
2022/07/02 08:06:37;;;;;;;;;1.75;1.75;;;;;46.92;12.28;101726.97;5097358;27;45433;-44
2022/07/02 08:09:02;;;;;;;;;2.00;2.00;;;;;47.50;11.45;101724.91;5097860;27;45337;-46
2022/07/02 08:11:27;;;;;;;;;2.75;0.75;;;;;47.67;10.95;101729.25;5097423;27;45335;-47
2022/07/02 08:13:54;;;;;;;;;2.75;2.75;;;;;47.88;11.71;101725.94;5097232;27;45282;-48
2022/07/02 08:16:19;;;;;;;;;1.60;1.60;;;;;48.19;11.24;101719.19;5097115;27;45510;-45
2022/07/02 08:18:44;;;;;;;;;1.50;1.50;;;;;48.37;11.64;101716.59;5097234;27;45604;-44
2022/07/02 08:21:10;;;;;;;;;1.50;1.50;;;;;48.65;10.57;101718.19;5097497;27;45966;-47
2022/07/02 08:23:35;;;;;;;;;1.00;1.00;;;;;49.05;9.76;101716.63;5096720;27;45355;-44
2022/07/02 08:26:00;;;;;;;;;0.50;0.00;;;;;49.32;10.24;101715.31;5096922;27;45414;-47
2022/07/02 08:28:26;;;;;;;;;0.75;0.75;;;;;49.61;10.02;101710.75;5097040;27;45230;-44
2022/07/02 08:30:51;;;;;;;;;1.75;1.75;;;;;49.80;9.42;101715.31;5096549;27;45469;-44
2022/07/02 08:33:17;;;;;;;;;0.75;0.75;;;;;49.97;9.17;101716.69;5097511;27;45458;-46
2022/07/02 08:35:43;;;;;;;;;1.75;1.75;;;;;50.33;8.53;101716.91;5096605;27;45303;-45
2022/07/02 08:38:08;;;;;;;;;0.80;0.80;;;;;50.43;10.48;101716.13;5096929;27;45349;-45
2022/07/02 08:40:34;;;;;;;;;0.75;0.75;;;;;50.33;9.08;101709.22;5097013;27;45620;-47
2022/07/02 08:43:00;;;;;;;;;0.50;0.50;;;;;50.40;9.06;101714.94;5096870;27;46171;-46
2022/07/02 08:45:30;;;;;;;;;0.75;0.75;;;;;50.56;8.86;101719.44;5096675;27;45772;-46
2022/07/02 08:47:56;;;;;;;;;1.20;0.20;;;;;50.75;8.35;101704.16;5096729;27;45390;-45
2022/07/02 08:50:23;;;;;;;;;1.50;0.50;;;;;50.71;8.64;101706.97;5096629;27;45668;-50
2022/07/02 08:52:51;;;;;;;;;0.00;0.00;;;;;51.03;9.96;101704.22;5096454;27;45354;-43
2022/07/02 08:55:21;;;;;;;;;0.20;0.00;;;;;51.24;9.13;101696.97;5096440;27;45393;-46
2022/07/02 08:57:48;;;;;;;;;0.20;0.00;;;;;51.17;10.41;101697.78;5096384;27;45473;-44
2022/07/02 09:00:15;;;;;;;;;0.00;0.00;;;;;51.04;9.60;101700.19;5096287;27;45529;-47
2022/07/02 09:02:42;;;;;;;;;0.00;0.00;;;;;51.07;8.22;101690.88;5096234;27;46219;-47
2022/07/02 09:05:09;;;;;;;;;0.00;0.00;;;;;51.49;7.77;101700.63;5096466;27;45543;-47
2022/07/02 09:07:35;;;;;;;;;0.00;0.00;;;;;51.36;7.93;101696.56;5096243;27;45219;-43
2022/07/02 09:10:02;;;;;;;;;0.00;0.00;;;;;50.98;9.08;101695.31;5096632;27;45435;-45
2022/07/02 09:12:29;;;;;;;;;1.40;0.80;;;;;51.14;8.11;101701.41;5096071;27;45723;-48
2022/07/02 09:14:54;;;;;;;;;0.00;0.00;;;;;50.77;7.04;101693.22;5094774;27;45447;-44
2022/07/02 09:17:20;;;;;;;;;0.50;0.00;;;;;51.04;8.21;101693.72;5096169;27;45467;-45
2022/07/02 09:19:45;;;;;;;;;0.00;0.00;;;;;51.43;7.53;101704.28;5096016;27;45512;-46
2022/07/02 09:22:12;;;;;;;;;0.00;0.00;;;;;51.41;8.55;101687.66;5096084;27;46204;-45
2022/07/02 09:24:42;;;;;;;;;0.60;0.00;;;;;50.70;8.50;101702.53;5095926;27;45377;-45
2022/07/02 09:27:10;;;;;;;;;2.40;0.80;;;;;50.79;9.35;101694.44;5096320;27;45300;-47
2022/07/02 09:29:43;;;;;;;;;0.80;0.80;;;;;50.41;9.06;101690.25;5094747;27;45468;-49
2022/07/02 09:32:09;;;;;;;;;0.40;0.40;;;;;50.69;8.45;101686.72;5095164;27;45487;-43
2022/07/02 09:34:40;;;;;;;;;0.40;0.40;;;;;50.91;7.71;101685.59;5095464;27;45673;-43
2022/07/02 09:37:17;;;;;;;;;0.00;0.00;;;;;50.89;7.67;101687.22;5095585;27;45516;-47
2022/07/02 09:39:43;;;;;;;;;0.00;0.00;;;;;50.25;9.29;101687.75;5096130;27;45301;-43
2022/07/02 09:42:29;;;;;;;;;0.00;0.00;;;;;50.36;8.18;101682.13;5095506;27;46882;-46
2022/07/02 09:44:56;;;;;;;;;2.60;0.80;;;;;50.10;8.50;101681.16;5087581;27;45572;-46
2022/07/02 09:47:37;;;;;;;;;0.00;0.00;;;;;49.80;8.53;101670.06;5095399;27;45449;-43
2022/07/02 09:50:08;;;;;;;;;0.40;0.40;;;;;50.48;8.52;101678.94;5095501;27;45823;-45
2022/07/02 09:52:34;;;;;;;;;0.00;0.00;;;;;50.77;8.41;101674.19;5095225;27;45514;-46
2022/07/02 09:55:01;;;;;;;;;0.20;0.00;;;;;50.99;7.51;101679.94;5094980;27;45386;-44
2022/07/02 09:57:26;;;;;;;;;0.20;0.00;;;;;51.26;9.52;101675.53;5095461;27;45367;-45
2022/07/02 09:59:52;;;;;;;;;0.25;0.25;;;;;51.13;8.10;101674.28;5095213;27;45421;-48
2022/07/02 10:02:24;;;;;;;;;0.20;0.20;;;;;51.17;9.07;101663.75;5095995;27;47219;-47
2022/07/02 10:04:53;;;;;;;;;0.00;0.00;;;;;51.09;7.44;101662.94;5098601;27;45529;-46
2022/07/02 10:07:21;;;;;;;;;0.00;0.00;;;;;51.34;7.98;101662.16;5098125;27;45495;-44
2022/07/02 10:09:47;;;;;;;;;0.00;0.00;;;;;51.21;7.79;101658.94;5099099;27;45472;-44
2022/07/02 10:12:14;;;;;;;;;0.00;0.00;;;;;50.82;7.97;101659.63;5098253;27;46207;-47
2022/07/02 10:14:42;;;;;;;;;1.20;0.20;;;;;50.75;8.23;101658.84;5097998;27;45556;-45
2022/07/02 10:17:08;;;;;;;;;0.00;0.00;;;;;50.20;8.53;101637.19;5098106;27;45430;-44
2022/07/02 10:19:34;;;;;;;;;0.00;0.00;;;;;50.09;8.64;101641.97;5098335;27;45440;-46
2022/07/02 10:22:02;;;;;;;;;0.00;0.00;;;;;50.11;8.49;101645.22;5098498;27;47022;-44
2022/07/02 10:24:27;;;;;;;;;0.00;0.00;;;;;49.78;9.29;101640.56;5098266;27;45450;-44
2022/07/02 10:26:58;;;;;;;;;0.00;0.00;;;;;48.90;8.61;101628.91;5097665;27;45686;-47
2022/07/02 10:29:24;;;;;;;;;1.60;0.40;;;;;48.90;8.72;101639.41;5097264;27;45429;-44
2022/07/02 10:32:02;;;;;;;;;0.00;0.00;;;;;48.67;8.42;101633.88;5097942;27;46033;-47
2022/07/02 10:34:44;;;;;;;;;0.00;0.00;;;;;48.60;8.58;101631.00;5098114;27;45379;-48
2022/07/02 10:37:10;;;;;;;;;0.20;0.20;;;;;48.24;8.58;101616.44;5098060;27;45356;-45
2022/07/02 10:39:41;;;;;;;;;0.60;0.60;;;;;47.60;8.83;101633.22;5098107;27;45537;-46
2022/07/02 10:42:07;;;;;;;;;0.00;0.00;;;;;46.90;9.00;101631.59;5098070;27;45397;-45
2022/07/02 10:44:42;;;;;;;;;1.00;1.00;;;;;45.84;9.56;101611.28;5097876;27;45856;-46
2022/07/02 10:47:18;;;;;;;;;0.40;0.00;;;;;44.79;10.27;101626.63;5097829;27;45489;-43
2022/07/02 10:49:43;;;;;;;;;0.00;0.00;;;;;42.85;11.65;101627.19;5098195;27;45540;-45
2022/07/02 10:52:09;;;;;;;;;0.00;0.00;;;;;41.07;12.41;101611.69;5096711;27;45808;-46
2022/07/02 10:54:34;;;;;;;;;1.25;0.75;;;;;39.46;13.45;101615.25;5098128;27;45755;-46
2022/07/02 10:57:00;;;;;;;;;0.25;0.25;;;;;37.45;14.42;101614.63;5098017;27;45359;-47
2022/07/02 10:59:33;;;;;;;;;0.00;0.00;;;;;36.06;16.47;101617.09;5098212;27;45486;-47
2022/07/02 11:02:08;;;;;;;;;0.00;0.00;;;;;34.76;17.14;101619.75;5097794;27;46259;-45
2022/07/02 11:04:38;;;;;;;;;0.00;0.00;;;;;33.70;18.07;101624.69;5097620;27;45385;-47
2022/07/02 11:07:13;;;;;;;;;0.20;0.20;;;;;32.93;18.39;101615.69;5097753;27;45257;-51
2022/07/02 11:09:58;;;;;;;;;0.00;0.00;;;;;32.31;18.63;101620.22;5097860;27;45496;-45
2022/07/02 11:12:44;;;;;;;;;0.20;0.20;;;;;31.74;19.45;101621.91;5097196;27;47113;-47
2022/07/02 11:15:46;;;;;;;;;0.40;0.40;;;;;31.23;21.13;101624.28;5097649;27;45223;-49
2022/07/02 11:18:13;;;;;;;;;0.20;0.20;;;;;30.85;21.17;101625.38;5074840;28;45486;-49
2022/07/02 11:20:39;;;;;;;;;1.40;1.00;;;;;30.62;21.08;101622.91;5075212;28;45426;-46
2022/07/02 11:23:05;;;;;;;;;1.00;1.00;;;;;30.38;21.87;101616.88;5067811;28;46140;-44
2022/07/02 11:25:31;;;;;;;;;3.25;1.00;;;;;30.16;21.29;101617.72;5069325;28;45608;-46
2022/07/02 11:28:02;;;;;;;;;2.00;1.00;;;;;29.79;21.25;101617.50;5070061;28;45445;-47
2022/07/02 11:30:29;;;;;;;;;2.20;0.60;;;;;29.51;22.43;101619.28;5069923;28;45590;-48